sensor_id;sensor_type;location;lat;lon;timestamp;P1;durP1;ratioP1;P2;durP2;ratioP2
10509;SDS011;5303;53.266;10.410;2023-07-22T00:01:04;5.30;;;4.20;;
10509;SDS011;5303;53.266;10.410;2023-07-22T00:03:30;6.33;;;4.33;;
10509;SDS011;5303;53.266;10.410;2023-07-22T00:06:02;6.07;;;4.23;;
10509;SDS011;5303;53.266;10.410;2023-07-22T00:08:28;5.27;;;4.43;;
10509;SDS011;5303;53.266;10.410;2023-07-22T00:10:53;5.67;;;4.27;;
10509;SDS011;5303;53.266;10.410;2023-07-22T00:13:19;4.80;;;4.33;;
10509;SDS011;5303;53.266;10.410;2023-07-22T00:15:44;5.70;;;5.10;;
10509;SDS011;5303;53.266;10.410;2023-07-22T00:18:09;5.03;;;4.43;;
10509;SDS011;5303;53.266;10.410;2023-07-22T00:20:35;5.80;;;4.80;;
10509;SDS011;5303;53.266;10.410;2023-07-22T00:23:00;5.60;;;4.73;;
10509;SDS011;5303;53.266;10.410;2023-07-22T00:25:26;5.97;;;4.80;;
10509;SDS011;5303;53.266;10.410;2023-07-22T00:27:51;7.67;;;5.20;;
10509;SDS011;5303;53.266;10.410;2023-07-22T00:30:16;6.00;;;5.27;;
10509;SDS011;5303;53.266;10.410;2023-07-22T00:32:42;7.23;;;5.50;;
10509;SDS011;5303;53.266;10.410;2023-07-22T00:35:08;6.87;;;5.37;;
10509;SDS011;5303;53.266;10.410;2023-07-22T00:37:36;7.37;;;5.77;;
10509;SDS011;5303;53.266;10.410;2023-07-22T00:40:02;7.63;;;5.97;;
10509;SDS011;5303;53.266;10.410;2023-07-22T00:42:31;8.27;;;5.80;;
10509;SDS011;5303;53.266;10.410;2023-07-22T00:44:56;7.33;;;5.80;;
10509;SDS011;5303;53.266;10.410;2023-07-22T00:47:22;5.70;;;4.97;;
10509;SDS011;5303;53.266;10.410;2023-07-22T00:49:47;7.20;;;5.93;;
10509;SDS011;5303;53.266;10.410;2023-07-22T00:52:14;7.23;;;6.30;;
10509;SDS011;5303;53.266;10.410;2023-07-22T00:54:41;8.33;;;6.37;;
10509;SDS011;5303;53.266;10.410;2023-07-22T00:57:06;7.60;;;6.17;;
10509;SDS011;5303;53.266;10.410;2023-07-22T00:59:32;6.63;;;5.93;;
10509;SDS011;5303;53.266;10.410;2023-07-22T01:01:57;7.67;;;6.83;;
10509;SDS011;5303;53.266;10.410;2023-07-22T01:04:23;6.83;;;6.13;;
10509;SDS011;5303;53.266;10.410;2023-07-22T01:06:49;7.57;;;6.10;;
10509;SDS011;5303;53.266;10.410;2023-07-22T01:09:18;6.83;;;6.10;;
10509;SDS011;5303;53.266;10.410;2023-07-22T01:11:43;14.13;;;6.87;;
10509;SDS011;5303;53.266;10.410;2023-07-22T01:14:09;8.03;;;6.63;;
10509;SDS011;5303;53.266;10.410;2023-07-22T01:16:34;7.17;;;6.17;;
10509;SDS011;5303;53.266;10.410;2023-07-22T01:19:00;9.87;;;7.03;;
10509;SDS011;5303;53.266;10.410;2023-07-22T01:21:25;10.33;;;7.10;;
10509;SDS011;5303;53.266;10.410;2023-07-22T01:23:51;8.57;;;7.20;;
10509;SDS011;5303;53.266;10.410;2023-07-22T01:26:18;10.03;;;7.27;;
10509;SDS011;5303;53.266;10.410;2023-07-22T01:28:44;8.13;;;6.73;;
10509;SDS011;5303;53.266;10.410;2023-07-22T01:31:09;9.70;;;7.63;;
10509;SDS011;5303;53.266;10.410;2023-07-22T01:33:35;10.20;;;7.10;;
10509;SDS011;5303;53.266;10.410;2023-07-22T01:36:01;12.43;;;8.10;;
10509;SDS011;5303;53.266;10.410;2023-07-22T01:38:28;11.67;;;8.20;;
10509;SDS011;5303;53.266;10.410;2023-07-22T01:40:54;10.53;;;8.40;;
10509;SDS011;5303;53.266;10.410;2023-07-22T01:43:19;10.10;;;7.33;;
10509;SDS011;5303;53.266;10.410;2023-07-22T01:45:46;8.90;;;7.30;;
10509;SDS011;5303;53.266;10.410;2023-07-22T01:48:11;10.67;;;7.70;;
10509;SDS011;5303;53.266;10.410;2023-07-22T01:50:37;9.83;;;7.43;;
10509;SDS011;5303;53.266;10.410;2023-07-22T01:53:02;10.43;;;7.63;;
10509;SDS011;5303;53.266;10.410;2023-07-22T01:55:28;9.57;;;7.43;;
10509;SDS011;5303;53.266;10.410;2023-07-22T01:57:54;11.33;;;8.53;;
10509;SDS011;5303;53.266;10.410;2023-07-22T02:00:20;12.43;;;7.60;;
10509;SDS011;5303;53.266;10.410;2023-07-22T02:02:46;13.07;;;8.73;;
10509;SDS011;5303;53.266;10.410;2023-07-22T02:05:11;12.47;;;8.63;;
10509;SDS011;5303;53.266;10.410;2023-07-22T02:07:37;13.67;;;8.30;;
10509;SDS011;5303;53.266;10.410;2023-07-22T02:10:02;12.30;;;8.20;;
10509;SDS011;5303;53.266;10.410;2023-07-22T02:12:28;8.97;;;7.90;;
10509;SDS011;5303;53.266;10.410;2023-07-22T02:14:53;11.87;;;8.07;;
10509;SDS011;5303;53.266;10.410;2023-07-22T02:17:18;9.93;;;7.20;;
10509;SDS011;5303;53.266;10.410;2023-07-22T02:19:45;12.10;;;8.17;;
10509;SDS011;5303;53.266;10.410;2023-07-22T02:22:10;12.17;;;8.07;;
10509;SDS011;5303;53.266;10.410;2023-07-22T02:24:35;12.50;;;8.90;;
10509;SDS011;5303;53.266;10.410;2023-07-22T02:27:01;11.53;;;8.07;;
10509;SDS011;5303;53.266;10.410;2023-07-22T02:29:26;11.77;;;7.93;;
10509;SDS011;5303;53.266;10.410;2023-07-22T02:31:51;16.33;;;9.13;;
10509;SDS011;5303;53.266;10.410;2023-07-22T02:34:17;14.03;;;9.67;;
10509;SDS011;5303;53.266;10.410;2023-07-22T02:36:42;11.67;;;9.10;;
10509;SDS011;5303;53.266;10.410;2023-07-22T02:39:07;11.17;;;8.23;;
10509;SDS011;5303;53.266;10.410;2023-07-22T02:41:34;11.93;;;9.20;;
10509;SDS011;5303;53.266;10.410;2023-07-22T02:44:01;14.40;;;9.13;;
10509;SDS011;5303;53.266;10.410;2023-07-22T02:46:28;11.80;;;8.63;;
10509;SDS011;5303;53.266;10.410;2023-07-22T02:48:53;13.80;;;9.50;;
10509;SDS011;5303;53.266;10.410;2023-07-22T02:51:19;12.27;;;8.57;;
10509;SDS011;5303;53.266;10.410;2023-07-22T02:53:45;15.93;;;10.07;;
10509;SDS011;5303;53.266;10.410;2023-07-22T02:56:11;18.03;;;9.73;;
10509;SDS011;5303;53.266;10.410;2023-07-22T02:58:37;13.37;;;10.03;;
10509;SDS011;5303;53.266;10.410;2023-07-22T03:01:03;16.23;;;10.27;;
10509;SDS011;5303;53.266;10.410;2023-07-22T03:03:29;16.07;;;9.60;;
10509;SDS011;5303;53.266;10.410;2023-07-22T03:05:56;15.00;;;9.40;;
10509;SDS011;5303;53.266;10.410;2023-07-22T03:08:22;13.77;;;9.90;;
10509;SDS011;5303;53.266;10.410;2023-07-22T03:10:48;13.57;;;9.50;;
10509;SDS011;5303;53.266;10.410;2023-07-22T03:13:14;11.03;;;8.63;;
10509;SDS011;5303;53.266;10.410;2023-07-22T03:15:40;14.63;;;9.57;;
10509;SDS011;5303;53.266;10.410;2023-07-22T03:18:05;14.60;;;9.80;;
10509;SDS011;5303;53.266;10.410;2023-07-22T03:20:34;14.23;;;10.23;;
10509;SDS011;5303;53.266;10.410;2023-07-22T03:23:01;15.93;;;10.10;;
10509;SDS011;5303;53.266;10.410;2023-07-22T03:25:26;15.50;;;10.00;;
10509;SDS011;5303;53.266;10.410;2023-07-22T03:27:52;15.13;;;9.33;;
10509;SDS011;5303;53.266;10.410;2023-07-22T03:30:17;14.63;;;9.60;;
10509;SDS011;5303;53.266;10.410;2023-07-22T03:32:43;13.97;;;10.10;;
10509;SDS011;5303;53.266;10.410;2023-07-22T03:35:10;14.90;;;10.80;;
10509;SDS011;5303;53.266;10.410;2023-07-22T03:37:35;19.30;;;10.47;;
10509;SDS011;5303;53.266;10.410;2023-07-22T03:40:02;16.00;;;10.20;;
10509;SDS011;5303;53.266;10.410;2023-07-22T03:42:33;14.10;;;10.10;;
10509;SDS011;5303;53.266;10.410;2023-07-22T03:44:59;14.93;;;9.53;;
10509;SDS011;5303;53.266;10.410;2023-07-22T03:47:24;15.93;;;9.80;;
10509;SDS011;5303;53.266;10.410;2023-07-22T03:49:50;15.03;;;10.27;;
10509;SDS011;5303;53.266;10.410;2023-07-22T03:52:15;14.33;;;9.57;;
10509;SDS011;5303;53.266;10.410;2023-07-22T03:54:43;14.87;;;10.37;;
10509;SDS011;5303;53.266;10.410;2023-07-22T03:57:08;15.63;;;10.40;;
10509;SDS011;5303;53.266;10.410;2023-07-22T03:59:34;14.93;;;10.00;;
10509;SDS011;5303;53.266;10.410;2023-07-22T04:01:59;15.13;;;10.17;;
10509;SDS011;5303;53.266;10.410;2023-07-22T04:04:24;16.50;;;10.63;;
10509;SDS011;5303;53.266;10.410;2023-07-22T04:06:49;14.23;;;9.87;;
10509;SDS011;5303;53.266;10.410;2023-07-22T04:09:15;15.77;;;10.10;;
10509;SDS011;5303;53.266;10.410;2023-07-22T04:11:40;14.33;;;9.93;;
10509;SDS011;5303;53.266;10.410;2023-07-22T04:14:05;16.73;;;9.30;;
10509;SDS011;5303;53.266;10.410;2023-07-22T04:16:30;14.20;;;9.20;;
10509;SDS011;5303;53.266;10.410;2023-07-22T04:18:56;15.17;;;9.83;;
10509;SDS011;5303;53.266;10.410;2023-07-22T04:21:21;14.80;;;9.43;;
10509;SDS011;5303;53.266;10.410;2023-07-22T04:23:46;14.00;;;9.03;;
10509;SDS011;5303;53.266;10.410;2023-07-22T04:26:12;14.60;;;9.30;;
10509;SDS011;5303;53.266;10.410;2023-07-22T04:28:38;13.53;;;8.43;;
10509;SDS011;5303;53.266;10.410;2023-07-22T04:31:03;13.27;;;9.23;;
10509;SDS011;5303;53.266;10.410;2023-07-22T04:33:29;14.00;;;8.50;;
10509;SDS011;5303;53.266;10.410;2023-07-22T04:35:56;14.93;;;8.63;;
10509;SDS011;5303;53.266;10.410;2023-07-22T04:38:24;11.20;;;8.27;;
10509;SDS011;5303;53.266;10.410;2023-07-22T04:40:49;10.13;;;7.30;;
10509;SDS011;5303;53.266;10.410;2023-07-22T04:43:14;12.40;;;8.80;;
10509;SDS011;5303;53.266;10.410;2023-07-22T04:45:39;13.33;;;7.70;;
10509;SDS011;5303;53.266;10.410;2023-07-22T04:48:05;11.73;;;7.07;;
10509;SDS011;5303;53.266;10.410;2023-07-22T04:50:31;16.23;;;8.20;;
10509;SDS011;5303;53.266;10.410;2023-07-22T04:52:56;10.63;;;7.90;;
10509;SDS011;5303;53.266;10.410;2023-07-22T04:55:21;11.43;;;8.20;;
10509;SDS011;5303;53.266;10.410;2023-07-22T04:57:47;13.77;;;9.03;;
10509;SDS011;5303;53.266;10.410;2023-07-22T05:00:13;14.17;;;8.37;;
10509;SDS011;5303;53.266;10.410;2023-07-22T05:02:41;15.17;;;8.77;;
10509;SDS011;5303;53.266;10.410;2023-07-22T05:05:08;12.10;;;7.90;;
10509;SDS011;5303;53.266;10.410;2023-07-22T05:07:34;13.10;;;8.30;;
10509;SDS011;5303;53.266;10.410;2023-07-22T05:09:59;12.20;;;7.80;;
10509;SDS011;5303;53.266;10.410;2023-07-22T05:12:25;11.07;;;8.03;;
10509;SDS011;5303;53.266;10.410;2023-07-22T05:14:50;9.27;;;7.27;;
10509;SDS011;5303;53.266;10.410;2023-07-22T05:17:15;10.97;;;7.40;;
10509;SDS011;5303;53.266;10.410;2023-07-22T05:19:41;10.97;;;6.70;;
10509;SDS011;5303;53.266;10.410;2023-07-22T05:22:06;8.07;;;6.27;;
10509;SDS011;5303;53.266;10.410;2023-07-22T05:24:32;9.73;;;7.00;;
10509;SDS011;5303;53.266;10.410;2023-07-22T05:26:57;9.77;;;6.70;;
10509;SDS011;5303;53.266;10.410;2023-07-22T05:29:23;7.73;;;6.07;;
10509;SDS011;5303;53.266;10.410;2023-07-22T05:31:48;8.53;;;6.07;;
10509;SDS011;5303;53.266;10.410;2023-07-22T05:34:13;13.80;;;7.13;;
10509;SDS011;5303;53.266;10.410;2023-07-22T05:36:39;8.53;;;6.23;;
10509;SDS011;5303;53.266;10.410;2023-07-22T05:39:04;9.47;;;6.60;;
10509;SDS011;5303;53.266;10.410;2023-07-22T05:41:29;9.40;;;6.50;;
10509;SDS011;5303;53.266;10.410;2023-07-22T05:43:55;9.50;;;7.40;;
10509;SDS011;5303;53.266;10.410;2023-07-22T05:46:20;11.60;;;7.40;;
10509;SDS011;5303;53.266;10.410;2023-07-22T05:48:45;9.97;;;7.07;;
10509;SDS011;5303;53.266;10.410;2023-07-22T05:51:11;11.77;;;7.60;;
10509;SDS011;5303;53.266;10.410;2023-07-22T05:53:36;12.93;;;8.03;;
10509;SDS011;5303;53.266;10.410;2023-07-22T05:56:01;12.13;;;8.23;;
10509;SDS011;5303;53.266;10.410;2023-07-22T05:58:27;10.90;;;7.80;;
10509;SDS011;5303;53.266;10.410;2023-07-22T06:00:53;11.60;;;8.30;;
10509;SDS011;5303;53.266;10.410;2023-07-22T06:03:19;11.47;;;7.80;;
10509;SDS011;5303;53.266;10.410;2023-07-22T06:05:45;11.80;;;7.90;;
10509;SDS011;5303;53.266;10.410;2023-07-22T06:08:11;13.60;;;8.47;;
10509;SDS011;5303;53.266;10.410;2023-07-22T06:10:36;12.43;;;8.67;;
10509;SDS011;5303;53.266;10.410;2023-07-22T06:13:04;10.23;;;8.10;;
10509;SDS011;5303;53.266;10.410;2023-07-22T06:15:30;13.07;;;7.80;;
10509;SDS011;5303;53.266;10.410;2023-07-22T06:17:55;10.73;;;7.60;;
10509;SDS011;5303;53.266;10.410;2023-07-22T06:20:20;11.80;;;7.73;;
10509;SDS011;5303;53.266;10.410;2023-07-22T06:22:46;10.97;;;7.87;;
10509;SDS011;5303;53.266;10.410;2023-07-22T06:25:11;10.07;;;7.33;;
10509;SDS011;5303;53.266;10.410;2023-07-22T06:27:37;10.53;;;7.60;;
10509;SDS011;5303;53.266;10.410;2023-07-22T06:30:03;8.43;;;6.70;;
10509;SDS011;5303;53.266;10.410;2023-07-22T06:32:29;13.53;;;6.97;;
10509;SDS011;5303;53.266;10.410;2023-07-22T06:34:55;10.13;;;7.43;;
10509;SDS011;5303;53.266;10.410;2023-07-22T06:37:23;9.30;;;6.50;;
10509;SDS011;5303;53.266;10.410;2023-07-22T06:39:49;8.27;;;6.87;;
10509;SDS011;5303;53.266;10.410;2023-07-22T06:42:14;8.70;;;6.87;;
10509;SDS011;5303;53.266;10.410;2023-07-22T06:44:40;8.40;;;6.20;;
10509;SDS011;5303;53.266;10.410;2023-07-22T06:47:05;8.37;;;6.47;;
10509;SDS011;5303;53.266;10.410;2023-07-22T06:49:30;8.70;;;6.70;;
10509;SDS011;5303;53.266;10.410;2023-07-22T06:51:56;10.67;;;6.00;;
10509;SDS011;5303;53.266;10.410;2023-07-22T06:54:21;7.67;;;6.57;;
10509;SDS011;5303;53.266;10.410;2023-07-22T06:56:46;11.10;;;6.13;;
10509;SDS011;5303;53.266;10.410;2023-07-22T06:59:12;7.47;;;6.00;;
10509;SDS011;5303;53.266;10.410;2023-07-22T07:01:37;7.33;;;5.43;;
10509;SDS011;5303;53.266;10.410;2023-07-22T07:04:02;6.77;;;5.30;;
10509;SDS011;5303;53.266;10.410;2023-07-22T07:06:28;6.30;;;5.67;;
10509;SDS011;5303;53.266;10.410;2023-07-22T07:08:54;8.10;;;5.57;;
10509;SDS011;5303;53.266;10.410;2023-07-22T07:11:20;8.37;;;5.70;;
10509;SDS011;5303;53.266;10.410;2023-07-22T07:13:45;7.40;;;5.53;;
10509;SDS011;5303;53.266;10.410;2023-07-22T07:16:23;6.80;;;5.33;;
10509;SDS011;5303;53.266;10.410;2023-07-22T07:18:53;6.67;;;5.70;;
10509;SDS011;5303;53.266;10.410;2023-07-22T07:21:20;7.73;;;4.90;;
10509;SDS011;5303;53.266;10.410;2023-07-22T07:23:46;9.50;;;5.47;;
10509;SDS011;5303;53.266;10.410;2023-07-22T07:26:12;8.13;;;4.70;;
10509;SDS011;5303;53.266;10.410;2023-07-22T07:28:37;7.60;;;4.60;;
10509;SDS011;5303;53.266;10.410;2023-07-22T07:31:02;5.40;;;4.17;;
10509;SDS011;5303;53.266;10.410;2023-07-22T07:33:28;6.30;;;4.53;;
10509;SDS011;5303;53.266;10.410;2023-07-22T07:35:53;4.83;;;3.97;;
10509;SDS011;5303;53.266;10.410;2023-07-22T07:38:19;6.20;;;4.50;;
10509;SDS011;5303;53.266;10.410;2023-07-22T07:40:44;5.37;;;4.40;;
10509;SDS011;5303;53.266;10.410;2023-07-22T07:43:09;7.67;;;4.50;;
10509;SDS011;5303;53.266;10.410;2023-07-22T07:45:38;7.33;;;4.17;;
10509;SDS011;5303;53.266;10.410;2023-07-22T07:48:04;5.60;;;4.23;;
10509;SDS011;5303;53.266;10.410;2023-07-22T07:50:30;5.57;;;3.90;;
10509;SDS011;5303;53.266;10.410;2023-07-22T07:52:55;4.53;;;3.80;;
10509;SDS011;5303;53.266;10.410;2023-07-22T07:55:20;5.87;;;3.67;;
10509;SDS011;5303;53.266;10.410;2023-07-22T07:57:46;4.10;;;3.57;;
10509;SDS011;5303;53.266;10.410;2023-07-22T08:00:11;5.87;;;3.60;;
10509;SDS011;5303;53.266;10.410;2023-07-22T08:02:37;4.23;;;3.30;;
10509;SDS011;5303;53.266;10.410;2023-07-22T08:05:02;4.60;;;3.80;;
10509;SDS011;5303;53.266;10.410;2023-07-22T08:07:28;4.23;;;2.63;;
10509;SDS011;5303;53.266;10.410;2023-07-22T08:09:53;5.80;;;3.17;;
10509;SDS011;5303;53.266;10.410;2023-07-22T08:12:18;3.97;;;3.30;;
10509;SDS011;5303;53.266;10.410;2023-07-22T08:14:43;5.03;;;2.87;;
10509;SDS011;5303;53.266;10.410;2023-07-22T08:17:09;5.77;;;2.90;;
10509;SDS011;5303;53.266;10.410;2023-07-22T08:19:35;5.83;;;3.03;;
10509;SDS011;5303;53.266;10.410;2023-07-22T08:22:00;3.57;;;2.80;;
10509;SDS011;5303;53.266;10.410;2023-07-22T08:24:25;3.00;;;2.67;;
10509;SDS011;5303;53.266;10.410;2023-07-22T08:26:51;7.97;;;3.40;;
10509;SDS011;5303;53.266;10.410;2023-07-22T08:29:16;4.37;;;2.87;;
10509;SDS011;5303;53.266;10.410;2023-07-22T08:31:41;3.80;;;2.97;;
10509;SDS011;5303;53.266;10.410;2023-07-22T08:34:06;5.20;;;2.83;;
10509;SDS011;5303;53.266;10.410;2023-07-22T08:36:32;4.57;;;2.73;;
10509;SDS011;5303;53.266;10.410;2023-07-22T08:38:57;4.10;;;2.60;;
10509;SDS011;5303;53.266;10.410;2023-07-22T08:41:22;3.73;;;2.67;;
10509;SDS011;5303;53.266;10.410;2023-07-22T08:43:50;3.23;;;2.50;;
10509;SDS011;5303;53.266;10.410;2023-07-22T08:46:16;4.90;;;2.63;;
10509;SDS011;5303;53.266;10.410;2023-07-22T08:48:46;4.17;;;2.10;;
10509;SDS011;5303;53.266;10.410;2023-07-22T08:51:15;4.53;;;2.10;;
10509;SDS011;5303;53.266;10.410;2023-07-22T08:53:43;4.67;;;2.30;;
10509;SDS011;5303;53.266;10.410;2023-07-22T08:56:09;2.67;;;2.00;;
10509;SDS011;5303;53.266;10.410;2023-07-22T08:58:35;2.93;;;1.97;;
10509;SDS011;5303;53.266;10.410;2023-07-22T09:01:01;4.13;;;1.90;;
10509;SDS011;5303;53.266;10.410;2023-07-22T09:03:26;5.40;;;2.10;;
10509;SDS011;5303;53.266;10.410;2023-07-22T09:05:52;4.90;;;2.20;;
10509;SDS011;5303;53.266;10.410;2023-07-22T09:08:19;3.37;;;2.10;;
10509;SDS011;5303;53.266;10.410;2023-07-22T09:10:44;3.67;;;1.93;;
10509;SDS011;5303;53.266;10.410;2023-07-22T09:13:11;4.60;;;2.13;;
10509;SDS011;5303;53.266;10.410;2023-07-22T09:15:40;4.93;;;2.47;;
10509;SDS011;5303;53.266;10.410;2023-07-22T09:18:06;3.43;;;2.20;;
10509;SDS011;5303;53.266;10.410;2023-07-22T09:20:31;3.87;;;2.00;;
10509;SDS011;5303;53.266;10.410;2023-07-22T09:22:58;2.77;;;2.00;;
10509;SDS011;5303;53.266;10.410;2023-07-22T09:25:26;2.60;;;2.10;;
10509;SDS011;5303;53.266;10.410;2023-07-22T09:27:53;2.83;;;2.00;;
10509;SDS011;5303;53.266;10.410;2023-07-22T09:30:27;3.07;;;1.60;;
10509;SDS011;5303;53.266;10.410;2023-07-22T09:32:55;3.37;;;1.93;;
10509;SDS011;5303;53.266;10.410;2023-07-22T09:35:21;4.70;;;1.90;;
10509;SDS011;5303;53.266;10.410;2023-07-22T09:37:48;2.33;;;2.00;;
10509;SDS011;5303;53.266;10.410;2023-07-22T09:42:42;2.53;;;2.03;;
10509;SDS011;5303;53.266;10.410;2023-07-22T09:45:09;3.77;;;2.13;;
10509;SDS011;5303;53.266;10.410;2023-07-22T09:47:41;1.70;;;1.60;;
10509;SDS011;5303;53.266;10.410;2023-07-22T09:50:10;2.60;;;2.00;;
10509;SDS011;5303;53.266;10.410;2023-07-22T09:52:43;2.67;;;2.00;;
10509;SDS011;5303;53.266;10.410;2023-07-22T09:55:10;4.13;;;1.80;;
10509;SDS011;5303;53.266;10.410;2023-07-22T09:57:37;2.40;;;1.87;;
10509;SDS011;5303;53.266;10.410;2023-07-22T10:00:08;3.77;;;2.20;;
10509;SDS011;5303;53.266;10.410;2023-07-22T10:02:34;2.97;;;2.13;;
10509;SDS011;5303;53.266;10.410;2023-07-22T10:05:00;3.23;;;2.03;;
10509;SDS011;5303;53.266;10.410;2023-07-22T10:07:28;2.47;;;1.90;;
10509;SDS011;5303;53.266;10.410;2023-07-22T10:09:55;2.23;;;1.90;;
10509;SDS011;5303;53.266;10.410;2023-07-22T10:12:20;2.70;;;2.10;;
10509;SDS011;5303;53.266;10.410;2023-07-22T10:14:46;2.10;;;1.70;;
10509;SDS011;5303;53.266;10.410;2023-07-22T10:17:13;1.80;;;1.50;;
10509;SDS011;5303;53.266;10.410;2023-07-22T10:19:39;2.20;;;1.70;;
10509;SDS011;5303;53.266;10.410;2023-07-22T10:22:04;3.53;;;2.13;;
10509;SDS011;5303;53.266;10.410;2023-07-22T10:24:30;2.17;;;1.87;;
10509;SDS011;5303;53.266;10.410;2023-07-22T10:26:56;2.57;;;2.10;;
10509;SDS011;5303;53.266;10.410;2023-07-22T10:29:21;2.63;;;2.00;;
10509;SDS011;5303;53.266;10.410;2023-07-22T10:31:47;4.07;;;2.27;;
10509;SDS011;5303;53.266;10.410;2023-07-22T10:34:20;2.93;;;2.10;;
10509;SDS011;5303;53.266;10.410;2023-07-22T10:36:47;3.13;;;2.30;;
10509;SDS011;5303;53.266;10.410;2023-07-22T10:39:17;3.67;;;2.60;;
10509;SDS011;5303;53.266;10.410;2023-07-22T10:41:57;3.93;;;2.43;;
10509;SDS011;5303;53.266;10.410;2023-07-22T10:44:25;4.23;;;2.40;;
10509;SDS011;5303;53.266;10.410;2023-07-22T10:46:58;3.27;;;2.43;;
10509;SDS011;5303;53.266;10.410;2023-07-22T10:49:24;3.13;;;2.43;;
10509;SDS011;5303;53.266;10.410;2023-07-22T10:51:52;3.70;;;2.57;;
10509;SDS011;5303;53.266;10.410;2023-07-22T10:54:34;3.30;;;2.60;;
10509;SDS011;5303;53.266;10.410;2023-07-22T10:57:22;6.03;;;2.90;;
10509;SDS011;5303;53.266;10.410;2023-07-22T10:59:50;3.47;;;2.40;;
10509;SDS011;5303;53.266;10.410;2023-07-22T11:02:23;2.90;;;2.53;;
10509;SDS011;5303;53.266;10.410;2023-07-22T11:04:52;3.00;;;2.60;;
10509;SDS011;5303;53.266;10.410;2023-07-22T11:07:29;4.23;;;2.57;;
10509;SDS011;5303;53.266;10.410;2023-07-22T11:10:01;4.10;;;3.07;;
10509;SDS011;5303;53.266;10.410;2023-07-22T11:12:36;3.80;;;3.00;;
10509;SDS011;5303;53.266;10.410;2023-07-22T11:15:04;3.97;;;3.00;;
10509;SDS011;5303;53.266;10.410;2023-07-22T11:17:31;3.67;;;3.13;;
10509;SDS011;5303;53.266;10.410;2023-07-22T11:19:58;3.17;;;2.60;;
10509;SDS011;5303;53.266;10.410;2023-07-22T11:22:24;3.53;;;2.93;;
10509;SDS011;5303;53.266;10.410;2023-07-22T11:24:49;3.43;;;3.03;;
10509;SDS011;5303;53.266;10.410;2023-07-22T11:27:14;3.60;;;3.30;;
10509;SDS011;5303;53.266;10.410;2023-07-22T11:29:40;4.90;;;3.43;;
10509;SDS011;5303;53.266;10.410;2023-07-22T11:32:14;4.77;;;3.57;;
10509;SDS011;5303;53.266;10.410;2023-07-22T11:34:41;4.20;;;3.43;;
10509;SDS011;5303;53.266;10.410;2023-07-22T11:37:06;4.57;;;3.30;;
10509;SDS011;5303;53.266;10.410;2023-07-22T11:39:32;5.40;;;3.90;;
10509;SDS011;5303;53.266;10.410;2023-07-22T11:41:59;5.53;;;3.90;;
10509;SDS011;5303;53.266;10.410;2023-07-22T11:44:26;5.90;;;4.20;;
10509;SDS011;5303;53.266;10.410;2023-07-22T11:49:23;6.07;;;4.40;;
10509;SDS011;5303;53.266;10.410;2023-07-22T11:51:50;6.10;;;4.13;;
10509;SDS011;5303;53.266;10.410;2023-07-22T11:54:15;6.90;;;4.77;;
10509;SDS011;5303;53.266;10.410;2023-07-22T11:56:42;5.47;;;4.17;;
10509;SDS011;5303;53.266;10.410;2023-07-22T11:59:07;4.80;;;4.27;;
10509;SDS011;5303;53.266;10.410;2023-07-22T12:01:33;4.50;;;3.93;;
10509;SDS011;5303;53.266;10.410;2023-07-22T12:03:59;5.73;;;3.97;;
10509;SDS011;5303;53.266;10.410;2023-07-22T12:06:27;4.73;;;4.10;;
10509;SDS011;5303;53.266;10.410;2023-07-22T12:08:53;5.60;;;4.10;;
10509;SDS011;5303;53.266;10.410;2023-07-22T12:11:19;5.97;;;4.53;;
10509;SDS011;5303;53.266;10.410;2023-07-22T12:13:45;6.30;;;4.60;;
10509;SDS011;5303;53.266;10.410;2023-07-22T12:16:20;5.47;;;4.60;;
10509;SDS011;5303;53.266;10.410;2023-07-22T12:18:46;5.60;;;4.53;;
10509;SDS011;5303;53.266;10.410;2023-07-22T12:21:12;6.77;;;4.23;;
10509;SDS011;5303;53.266;10.410;2023-07-22T12:23:38;5.20;;;4.27;;
10509;SDS011;5303;53.266;10.410;2023-07-22T12:26:04;7.20;;;5.10;;
10509;SDS011;5303;53.266;10.410;2023-07-22T12:28:30;8.87;;;5.20;;
10509;SDS011;5303;53.266;10.410;2023-07-22T12:30:56;5.67;;;5.10;;
10509;SDS011;5303;53.266;10.410;2023-07-22T12:33:22;6.33;;;4.73;;
10509;SDS011;5303;53.266;10.410;2023-07-22T12:35:49;5.10;;;4.33;;
10509;SDS011;5303;53.266;10.410;2023-07-22T12:38:14;6.27;;;4.70;;
10509;SDS011;5303;53.266;10.410;2023-07-22T12:40:39;6.37;;;4.70;;
10509;SDS011;5303;53.266;10.410;2023-07-22T12:43:05;6.17;;;4.70;;
10509;SDS011;5303;53.266;10.410;2023-07-22T12:45:30;7.73;;;5.27;;
10509;SDS011;5303;53.266;10.410;2023-07-22T12:47:55;6.33;;;4.63;;
10509;SDS011;5303;53.266;10.410;2023-07-22T12:50:20;6.30;;;4.77;;
10509;SDS011;5303;53.266;10.410;2023-07-22T12:52:46;5.67;;;5.10;;
10509;SDS011;5303;53.266;10.410;2023-07-22T12:55:11;6.27;;;5.27;;
10509;SDS011;5303;53.266;10.410;2023-07-22T12:57:36;5.88;;;5.05;;
10509;SDS011;5303;53.266;10.410;2023-07-22T13:00:01;6.20;;;4.90;;
10509;SDS011;5303;53.266;10.410;2023-07-22T13:02:31;6.33;;;4.90;;
10509;SDS011;5303;53.266;10.410;2023-07-22T13:04:56;5.95;;;5.13;;
10509;SDS011;5303;53.266;10.410;2023-07-22T13:07:21;6.67;;;4.60;;
10509;SDS011;5303;53.266;10.410;2023-07-22T13:09:46;6.53;;;4.78;;
10509;SDS011;5303;53.266;10.410;2023-07-22T13:12:13;6.57;;;4.70;;
10509;SDS011;5303;53.266;10.410;2023-07-22T13:14:38;6.10;;;4.40;;
10509;SDS011;5303;53.266;10.410;2023-07-22T13:17:04;5.97;;;4.50;;
10509;SDS011;5303;53.266;10.410;2023-07-22T13:19:29;5.00;;;4.33;;
10509;SDS011;5303;53.266;10.410;2023-07-22T13:21:54;5.10;;;4.27;;
10509;SDS011;5303;53.266;10.410;2023-07-22T13:24:21;5.73;;;4.30;;
10509;SDS011;5303;53.266;10.410;2023-07-22T13:26:46;5.35;;;4.20;;
10509;SDS011;5303;53.266;10.410;2023-07-22T13:29:12;4.20;;;3.80;;
10509;SDS011;5303;53.266;10.410;2023-07-22T13:31:37;4.15;;;3.53;;
10509;SDS011;5303;53.266;10.410;2023-07-22T13:34:02;4.53;;;3.95;;
10509;SDS011;5303;53.266;10.410;2023-07-22T13:36:27;5.40;;;4.30;;
10509;SDS011;5303;53.266;10.410;2023-07-22T13:38:53;4.97;;;4.05;;
10509;SDS011;5303;53.266;10.410;2023-07-22T13:41:18;5.87;;;4.17;;
10509;SDS011;5303;53.266;10.410;2023-07-22T13:43:44;6.10;;;4.13;;
10509;SDS011;5303;53.266;10.410;2023-07-22T13:46:09;4.20;;;3.80;;
10509;SDS011;5303;53.266;10.410;2023-07-22T13:48:34;4.73;;;3.73;;
10509;SDS011;5303;53.266;10.410;2023-07-22T13:50:59;5.30;;;4.00;;
10509;SDS011;5303;53.266;10.410;2023-07-22T13:53:25;4.97;;;4.33;;
10509;SDS011;5303;53.266;10.410;2023-07-22T13:55:50;4.37;;;3.83;;
10509;SDS011;5303;53.266;10.410;2023-07-22T13:58:15;5.07;;;3.73;;
10509;SDS011;5303;53.266;10.410;2023-07-22T14:00:40;5.90;;;3.97;;
10509;SDS011;5303;53.266;10.410;2023-07-22T14:03:06;4.83;;;4.10;;
10509;SDS011;5303;53.266;10.410;2023-07-22T14:05:31;4.93;;;3.67;;
10509;SDS011;5303;53.266;10.410;2023-07-22T14:07:56;4.75;;;3.63;;
10509;SDS011;5303;53.266;10.410;2023-07-22T14:10:21;5.77;;;3.97;;
10509;SDS011;5303;53.266;10.410;2023-07-22T14:12:47;6.10;;;4.23;;
10509;SDS011;5303;53.266;10.410;2023-07-22T14:15:12;4.60;;;4.05;;
10509;SDS011;5303;53.266;10.410;2023-07-22T14:17:37;7.50;;;4.22;;
10509;SDS011;5303;53.266;10.410;2023-07-22T14:20:06;6.50;;;4.47;;
10509;SDS011;5303;53.266;10.410;2023-07-22T14:22:32;4.60;;;3.90;;
10509;SDS011;5303;53.266;10.410;2023-07-22T14:24:57;5.90;;;3.50;;
10509;SDS011;5303;53.266;10.410;2023-07-22T14:27:22;4.30;;;3.43;;
10509;SDS011;5303;53.266;10.410;2023-07-22T14:29:48;3.77;;;3.27;;
10509;SDS011;5303;53.266;10.410;2023-07-22T14:32:13;4.17;;;3.77;;
10509;SDS011;5303;53.266;10.410;2023-07-22T14:34:41;4.50;;;3.67;;
10509;SDS011;5303;53.266;10.410;2023-07-22T14:37:06;5.47;;;3.60;;
10509;SDS011;5303;53.266;10.410;2023-07-22T14:39:31;5.97;;;3.47;;
10509;SDS011;5303;53.266;10.410;2023-07-22T14:41:57;6.17;;;3.87;;